Time;durP1;ratioP1;P1;durP2;ratioP2;P2;SDS_P1;SDS_P2;PMS_P1;PMS_P2;Temp;Humidity;BMP_temperature;BMP_pressure;BME280_temperature;BME280_humidity;BME280_pressure;Samples;Min_cycle;Max_cycle;Signal;HPM_P1;HPM_P2
2023/03/08 00:00:29;;;;;;;14.40;7.27;;;;;;;8.26;47.99;99153.25;5068992;28;20210;-68
2023/03/08 00:02:56;;;;;;;12.03;6.90;;;;;;;8.29;47.81;99159.00;5073466;28;20238;-69
2023/03/08 00:05:26;;;;;;;12.83;6.80;;;;;;;8.29;47.98;99158.19;5072776;28;20266;-68
2023/03/08 00:07:53;;;;;;;13.63;7.03;;;;;;;8.22;48.19;99146.66;5071365;28;20212;-69
2023/03/08 00:10:22;;;;;;;13.73;7.27;;;;;;;8.25;48.21;99157.72;5072052;28;20580;-67
2023/03/08 00:12:49;;;;;;;11.90;6.97;;;;;;;8.24;48.14;99168.44;5072066;28;20216;-68
2023/03/08 00:15:18;;;;;;;15.00;7.57;;;;;;;8.25;47.84;99156.88;5072856;28;20212;-68
2023/03/08 00:17:45;;;;;;;12.03;6.63;;;;;;;8.25;47.75;99156.88;5074153;28;20228;-68
2023/03/08 00:20:14;;;;;;;17.50;6.33;;;;;;;8.25;47.82;99156.88;5073989;28;20236;-68
2023/03/08 00:22:43;;;;;;;12.47;6.80;;;;;;;8.32;47.46;99155.25;5071671;28;20616;-68
2023/03/08 00:25:15;;;;;;;15.37;7.07;;;;;;;8.20;47.67;99161.81;5072539;28;20250;-68
2023/03/08 00:27:42;;;;;;;11.37;6.10;;;;;;;8.13;47.92;99152.91;5072344;28;20201;-68
2023/03/08 00:30:12;;;;;;;12.00;6.80;;;;;;;8.16;47.92;99152.59;5071535;28;20216;-68
2023/03/08 00:32:39;;;;;;;11.97;7.20;;;;;;;8.23;47.36;99154.41;5070530;28;20202;-69
2023/03/08 00:35:08;;;;;;;13.33;7.10;;;;;;;8.14;47.64;99152.75;5069943;28;20210;-70
2023/03/08 00:37:36;;;;;;;10.30;6.50;;;;;;;8.08;47.87;99150.78;5072699;28;20212;-68
2023/03/08 00:40:09;;;;;;;12.57;7.10;;;;;;;8.15;47.50;99140.38;5075896;28;20212;-68
2023/03/08 00:42:37;;;;;;;13.27;6.97;;;;;;;8.07;47.59;99143.00;5075649;28;20223;-68
2023/03/08 00:45:05;;;;;;;12.13;6.97;;;;;;;8.05;47.59;99139.72;5076036;28;20688;-67
2023/03/08 00:47:34;;;;;;;11.33;6.53;;;;;;;8.07;47.65;99148.28;5078898;28;20208;-68
2023/03/08 00:50:02;;;;;;;11.73;6.50;;;;;;;8.08;47.57;99140.22;5075562;28;20218;-67
2023/03/08 00:52:29;;;;;;;13.47;6.57;;;;;;;8.10;47.43;99140.03;5073320;28;20217;-69
2023/03/08 00:54:57;;;;;;;13.50;7.27;;;;;;;8.12;47.41;99130.13;5077808;28;20259;-69
2023/03/08 00:57:26;;;;;;;12.07;7.20;;;;;;;8.16;47.17;99128.81;5077021;28;20928;-68
2023/03/08 00:59:54;;;;;;;12.83;7.00;;;;;;;8.20;47.38;99123.03;5075030;28;20224;-68
2023/03/08 01:02:21;;;;;;;13.17;7.23;;;;;;;8.23;47.17;99128.00;5072706;28;20297;-68
2023/03/08 01:04:49;;;;;;;12.63;6.23;;;;;;;8.24;46.99;99131.47;5073136;28;20209;-68
2023/03/08 01:07:18;;;;;;;10.77;6.37;;;;;;;8.24;46.96;99134.09;5075841;28;20375;-70
2023/03/08 01:09:46;;;;;;;14.73;6.87;;;;;;;8.25;46.93;99133.13;5072817;28;20264;-69
2023/03/08 01:12:13;;;;;;;11.43;6.67;;;;;;;8.26;46.76;99126.84;5072215;28;20576;-69
2023/03/08 01:14:42;;;;;;;13.57;7.13;;;;;;;8.28;46.89;99130.97;5072071;28;20935;-68
2023/03/08 01:17:10;;;;;;;13.00;7.27;;;;;;;8.25;46.58;99135.75;5073449;28;20585;-69
2023/03/08 01:19:38;;;;;;;12.70;6.93;;;;;;;8.20;46.80;99133.59;5073664;28;20214;-68
2023/03/08 01:22:06;;;;;;;14.57;6.70;;;;;;;8.16;46.80;99120.91;5072603;28;20213;-68
2023/03/08 01:24:33;;;;;;;11.67;6.43;;;;;;;8.18;46.75;99114.44;5075883;28;20228;-69
2023/03/08 01:27:01;;;;;;;14.17;7.13;;;;;;;8.15;46.98;99104.25;5073634;28;20581;-68
2023/03/08 01:29:29;;;;;;;12.13;6.50;;;;;;;8.17;46.90;99106.72;5076811;28;20208;-68
2023/03/08 01:31:58;;;;;;;11.17;6.47;;;;;;;8.12;46.88;99098.44;5075683;28;20203;-69
2023/03/08 01:34:25;;;;;;;12.40;7.17;;;;;;;8.14;46.73;99097.31;5074524;28;20542;-68
2023/03/08 01:36:53;;;;;;;12.43;7.00;;;;;;;8.03;47.10;99097.63;5076690;28;20235;-69
2023/03/08 01:39:21;;;;;;;11.73;6.43;;;;;;;7.99;47.07;99087.59;5078925;28;20740;-68
2023/03/08 01:41:49;;;;;;;13.73;7.77;;;;;;;7.99;47.37;99098.13;5073909;28;20205;-68
2023/03/08 01:44:18;;;;;;;14.63;6.80;;;;;;;8.04;47.23;99095.81;5073658;28;20716;-69
2023/03/08 01:46:46;;;;;;;11.60;6.53;;;;;;;8.07;47.17;99096.31;5075757;28;21090;-69
2023/03/08 01:49:19;;;;;;;11.57;6.50;;;;;;;8.07;46.96;99090.22;5075550;28;20219;-70
2023/03/08 01:51:51;;;;;;;11.87;6.53;;;;;;;7.99;46.95;99091.06;5076984;28;20313;-69
2023/03/08 01:54:23;;;;;;;11.77;6.40;;;;;;;7.96;46.99;99088.72;5073766;28;20229;-68
2023/03/08 01:56:54;;;;;;;12.13;6.70;;;;;;;7.94;47.12;99091.53;5075241;28;20379;-68
2023/03/08 01:59:23;;;;;;;16.60;6.97;;;;;;;7.96;47.17;99088.72;5076340;28;20255;-69
2023/03/08 02:01:51;;;;;;;11.40;6.40;;;;;;;7.99;47.11;99079.66;5075281;28;20217;-69
2023/03/08 02:04:20;;;;;;;12.87;7.00;;;;;;;8.01;46.72;99075.03;5075307;28;20229;-68
2023/03/08 02:06:48;;;;;;;16.77;7.33;;;;;;;7.93;47.25;99074.03;5077930;28;20243;-67
2023/03/08 02:09:16;;;;;;;14.00;7.20;;;;;;;7.94;47.18;99065.13;5076625;28;20299;-68
2023/03/08 02:11:44;;;;;;;14.87;6.17;;;;;;;7.94;47.04;99066.94;5074245;28;20213;-67
2023/03/08 02:14:12;;;;;;;12.40;6.70;;;;;;;7.87;47.14;99072.06;5075715;28;20222;-68
2023/03/08 02:16:39;;;;;;;13.60;6.90;;;;;;;7.79;47.25;99061.50;5074904;28;20205;-70
2023/03/08 02:19:12;;;;;;;12.10;7.03;;;;;;;7.73;47.24;99056.06;5075424;28;20219;-68
2023/03/08 02:21:41;;;;;;;12.30;6.43;;;;;;;7.68;47.35;99053.91;5075257;28;20295;-68
2023/03/08 02:24:19;;;;;;;12.27;6.63;;;;;;;7.65;47.38;99048.94;5076066;28;20229;-67
2023/03/08 02:26:49;;;;;;;13.13;7.20;;;;;;;7.69;47.32;99045.00;5078545;28;20231;-68
2023/03/08 02:29:17;;;;;;;14.10;6.80;;;;;;;7.73;47.10;99046.34;5075888;28;20214;-68
2023/03/08 02:31:44;;;;;;;12.57;7.37;;;;;;;7.76;47.22;99042.53;5075350;28;20211;-68
2023/03/08 02:34:12;;;;;;;12.50;6.63;;;;;;;7.77;47.15;99042.38;5074941;28;20217;-68
2023/03/08 02:36:40;;;;;;;12.53;6.67;;;;;;;7.78;47.12;99033.47;5076045;28;20244;-67
2023/03/08 02:39:07;;;;;;;14.47;7.20;;;;;;;7.80;47.13;99026.22;5075462;28;20730;-68
2023/03/08 02:41:36;;;;;;;11.50;6.30;;;;;;;7.82;47.33;99032.16;5077034;28;20216;-67
2023/03/08 02:44:04;;;;;;;14.77;7.17;;;;;;;7.77;47.21;99023.91;5078094;28;20261;-68
2023/03/08 02:46:32;;;;;;;14.60;6.87;;;;;;;7.82;47.31;99024.25;5076353;28;20208;-68
2023/03/08 02:49:00;;;;;;;11.67;6.47;;;;;;;7.80;47.14;99020.13;5075735;28;20229;-67
2023/03/08 02:51:28;;;;;;;14.27;6.80;;;;;;;7.79;47.21;99016.66;5073992;28;20206;-68
2023/03/08 02:53:55;;;;;;;11.07;6.37;;;;;;;7.75;47.33;99007.41;5080680;28;20209;-68
2023/03/08 02:56:23;;;;;;;13.37;6.83;;;;;;;7.67;47.28;99010.03;5074214;28;20205;-68
2023/03/08 02:58:53;;;;;;;12.83;6.50;;;;;;;7.64;47.63;99005.13;5074300;28;20211;-68
2023/03/08 03:01:20;;;;;;;13.40;7.07;;;;;;;7.72;47.49;99002.47;5074533;28;20226;-68
2023/03/08 03:03:49;;;;;;;15.07;6.97;;;;;;;7.78;47.37;99006.25;5073228;28;20269;-68
2023/03/08 03:06:18;;;;;;;12.47;6.47;;;;;;;7.85;47.28;98989.59;5074184;28;20237;-70
2023/03/08 03:08:46;;;;;;;12.53;7.60;;;;;;;7.80;47.31;98999.84;5075372;28;20208;-69
2023/03/08 03:11:15;;;;;;;13.93;6.93;;;;;;;7.79;47.53;98990.25;5074210;28;20212;-69
2023/03/08 03:13:44;;;;;;;11.93;6.80;;;;;;;7.78;47.50;98991.25;5074328;28;20972;-70
2023/03/08 03:16:15;;;;;;;10.80;6.20;;;;;;;7.80;47.56;98978.72;5073015;28;20214;-68
2023/03/08 03:18:43;;;;;;;13.10;7.03;;;;;;;7.85;47.40;98979.03;5074211;28;20354;-68
2023/03/08 03:21:13;;;;;;;12.43;6.53;;;;;;;7.84;47.66;98980.03;5072919;28;20208;-67
2023/03/08 03:23:41;;;;;;;13.03;6.63;;;;;;;7.84;47.52;98971.28;5075109;28;20227;-68
2023/03/08 03:26:12;;;;;;;14.77;7.77;;;;;;;7.87;47.42;98963.88;5072484;28;20299;-69
2023/03/08 03:28:40;;;;;;;12.80;6.70;;;;;;;7.83;47.53;98967.00;5072799;28;20220;-68
2023/03/08 03:31:08;;;;;;;12.13;6.63;;;;;;;7.77;47.67;98973.75;5074042;28;20213;-69
2023/03/08 03:33:38;;;;;;;11.53;6.40;;;;;;;7.73;47.42;98980.38;5072125;28;20370;-68
2023/03/08 03:36:08;;;;;;;13.40;6.90;;;;;;;7.64;47.94;98981.38;5073602;28;20234;-68
2023/03/08 03:38:36;;;;;;;11.47;6.50;;;;;;;7.60;47.81;98982.69;5074914;28;20208;-66
2023/03/08 03:41:06;;;;;;;16.23;7.40;;;;;;;7.55;47.87;98975.28;5074922;28;21100;-68
2023/03/08 03:43:34;;;;;;;12.70;6.37;;;;;;;7.52;47.92;98966.84;5073606;28;21031;-70
2023/03/08 03:46:05;;;;;;;11.80;6.53;;;;;;;7.48;47.99;98960.25;5072939;28;20728;-69
2023/03/08 03:48:34;;;;;;;13.60;6.90;;;;;;;7.35;48.35;98971.31;5073976;28;20288;-67
2023/03/08 03:51:05;;;;;;;13.23;6.97;;;;;;;7.38;48.61;98970.16;5075575;28;20218;-68
2023/03/08 03:53:35;;;;;;;13.87;7.03;;;;;;;7.41;48.44;98977.72;5075525;28;20569;-68
2023/03/08 03:56:04;;;;;;;11.90;6.63;;;;;;;7.39;48.74;98977.06;5073912;28;20211;-69
2023/03/08 03:58:32;;;;;;;13.13;6.93;;;;;;;7.46;48.79;98970.16;5073916;28;20344;-68
2023/03/08 04:01:00;;;;;;;12.80;6.47;;;;;;;7.49;48.32;98965.38;5075029;28;20196;-67
2023/03/08 04:03:28;;;;;;;13.23;7.20;;;;;;;7.33;48.37;98959.25;5073341;28;20248;-69
2023/03/08 04:06:07;;;;;;;13.27;7.07;;;;;;;7.36;48.56;98959.78;5075104;28;20255;-68
2023/03/08 04:08:40;;;;;;;13.90;6.70;;;;;;;7.37;48.59;98964.06;5073691;28;20302;-68
2023/03/08 04:11:09;;;;;;;13.57;6.60;;;;;;;7.28;48.77;98956.31;5072785;28;20236;-68
2023/03/08 04:13:37;;;;;;;13.13;6.50;;;;;;;7.29;48.99;98963.22;5074118;28;20222;-69
2023/03/08 04:16:11;;;;;;;14.80;6.60;;;;;;;7.31;48.70;98961.22;5070585;28;20199;-66
2023/03/08 04:18:39;;;;;;;15.03;6.80;;;;;;;7.23;48.77;98958.59;5074567;28;20207;-66
2023/03/08 04:21:08;;;;;;;12.47;6.67;;;;;;;7.24;49.09;98960.25;5069493;28;20207;-66
2023/03/08 04:23:37;;;;;;;12.73;7.13;;;;;;;7.30;49.25;98956.97;5073014;28;20235;-66
2023/03/08 04:26:06;;;;;;;15.17;7.03;;;;;;;7.38;49.30;98947.25;5074619;28;20226;-66
2023/03/08 04:28:34;;;;;;;12.37;6.80;;;;;;;7.30;49.39;98949.06;5071590;28;20223;-66
2023/03/08 04:31:11;;;;;;;15.13;7.20;;;;;;;7.30;49.24;98943.78;5073167;28;20313;-66
2023/03/08 04:33:39;;;;;;;14.70;7.40;;;;;;;7.22;49.34;98943.75;5070616;28;20571;-66
2023/03/08 04:36:09;;;;;;;14.50;7.07;;;;;;;7.24;49.17;98942.63;5070457;28;20245;-66
2023/03/08 04:38:37;;;;;;;15.63;6.70;;;;;;;7.17;49.31;98934.53;5074241;28;20693;-66
2023/03/08 04:41:10;;;;;;;12.10;6.80;;;;;;;7.06;49.31;98932.22;5070949;28;20215;-66
2023/03/08 04:43:39;;;;;;;14.97;6.60;;;;;;;7.07;49.24;98918.06;5069297;28;20298;-67
2023/03/08 04:46:07;;;;;;;16.37;8.63;;;;;;;7.08;49.01;98913.63;5069903;28;20233;-66
2023/03/08 04:48:35;;;;;;;13.63;7.10;;;;;;;7.03;50.26;98919.38;5072689;28;20221;-62
2023/03/08 04:51:06;;;;;;;14.67;7.13;;;;;;;7.01;50.51;98916.09;5072102;28;20210;-63
2023/03/08 04:53:37;;;;;;;13.73;6.67;;;;;;;6.94;49.85;98909.81;5071499;28;20630;-67
2023/03/08 04:56:06;;;;;;;12.73;7.00;;;;;;;6.90;49.75;98908.47;5072822;28;20771;-65
2023/03/08 04:58:35;;;;;;;12.20;6.90;;;;;;;6.82;49.90;98905.00;5076259;28;20207;-65
2023/03/08 05:01:09;;;;;;;13.20;7.43;;;;;;;6.78;50.08;98901.88;5073616;28;20847;-65
2023/03/08 05:03:37;;;;;;;13.87;7.20;;;;;;;6.79;49.95;98898.25;5073224;28;20218;-66
2023/03/08 05:06:05;;;;;;;16.60;7.87;;;;;;;6.82;50.00;98897.94;5073002;28;20235;-66
2023/03/08 05:08:34;;;;;;;12.40;7.10;;;;;;;6.80;50.11;98895.47;5074075;28;20208;-66
2023/03/08 05:11:03;;;;;;;15.43;7.53;;;;;;;6.88;49.89;98891.19;5075270;28;20211;-65
2023/03/08 05:13:33;;;;;;;15.27;7.23;;;;;;;6.86;49.86;98887.91;5077091;28;20218;-66
2023/03/08 05:16:02;;;;;;;14.27;7.63;;;;;;;6.83;49.99;98890.84;5075881;28;20763;-65
2023/03/08 05:18:30;;;;;;;16.00;7.33;;;;;;;6.85;50.07;98895.00;5074212;28;20219;-66
2023/03/08 05:20:59;;;;;;;13.00;6.97;;;;;;;6.99;49.91;98898.78;5074479;28;20233;-66
2023/03/08 05:23:29;;;;;;;14.10;7.50;;;;;;;7.01;49.74;98902.91;5073978;28;20221;-65
2023/03/08 05:25:59;;;;;;;19.00;8.33;;;;;;;7.03;49.51;98902.75;5076578;28;20239;-66
2023/03/08 05:28:29;;;;;;;21.50;8.13;;;;;;;6.98;49.76;98897.94;5078713;28;20214;-65
2023/03/08 05:31:01;;;;;;;17.23;7.80;;;;;;;6.88;49.99;98886.75;5076147;28;20215;-66
2023/03/08 05:33:29;;;;;;;16.97;8.27;;;;;;;6.79;50.20;98885.06;5078942;28;20209;-67
2023/03/08 05:35:57;;;;;;;15.13;8.27;;;;;;;6.65;50.74;98881.28;5076083;28;20230;-66
2023/03/08 05:38:25;;;;;;;16.33;7.53;;;;;;;6.63;50.72;98888.50;5077534;28;20207;-66
2023/03/08 05:40:53;;;;;;;15.87;7.80;;;;;;;6.58;50.74;98874.19;5077521;28;20210;-65
2023/03/08 05:43:24;;;;;;;13.63;7.47;;;;;;;6.51;50.91;98868.72;5074552;28;20207;-65
2023/03/08 05:45:56;;;;;;;13.30;7.57;;;;;;;6.48;51.00;98871.69;5079597;28;20230;-66
2023/03/08 05:48:24;;;;;;;14.13;7.53;;;;;;;6.49;51.01;98870.72;5078394;28;20583;-66
2023/03/08 05:50:52;;;;;;;15.37;8.10;;;;;;;6.54;51.20;98863.13;5076447;28;20207;-66
2023/03/08 05:53:20;;;;;;;16.20;7.97;;;;;;;6.57;50.92;98835.66;5077678;28;20653;-67
2023/03/08 05:55:48;;;;;;;16.43;8.20;;;;;;;6.51;51.16;98831.06;5077562;28;20935;-66
2023/03/08 05:58:16;;;;;;;15.77;8.47;;;;;;;6.50;51.14;98830.22;5074238;28;20214;-65
2023/03/08 06:00:45;;;;;;;16.70;8.60;;;;;;;6.38;51.26;98829.72;5073473;28;20675;-65
2023/03/08 06:03:12;;;;;;;20.67;8.90;;;;;;;6.39;51.60;98828.72;5074820;28;20302;-65
2023/03/08 06:05:40;;;;;;;15.27;8.30;;;;;;;6.37;51.74;98841.22;5075745;28;20240;-65
2023/03/08 06:08:08;;;;;;;17.23;9.13;;;;;;;6.41;51.53;98829.41;5073360;28;20293;-66
2023/03/08 06:10:35;;;;;;;21.47;8.67;;;;;;;6.45;51.49;98813.25;5072662;28;20207;-66
2023/03/08 06:13:03;;;;;;;17.03;8.80;;;;;;;6.53;51.12;98808.81;5075864;28;20218;-66
2023/03/08 06:15:31;;;;;;;15.50;8.53;;;;;;;6.50;51.18;98798.63;5076795;28;20225;-65
2023/03/08 06:18:00;;;;;;;19.90;9.40;;;;;;;6.44;51.50;98809.78;5075972;28;20215;-65
2023/03/08 06:20:27;;;;;;;18.47;9.13;;;;;;;6.46;51.54;98812.28;5074753;28;20210;-67
2023/03/08 06:22:55;;;;;;;19.13;9.33;;;;;;;6.48;51.54;98810.31;5074963;28;20213;-66
2023/03/08 06:25:23;;;;;;;15.43;8.33;;;;;;;6.42;51.63;98804.69;5076210;28;20227;-65
2023/03/08 06:27:50;;;;;;;14.40;8.10;;;;;;;6.43;51.63;98787.91;5078345;28;20211;-66
2023/03/08 06:30:18;;;;;;;17.83;9.20;;;;;;;6.38;51.72;98794.66;5074435;28;20580;-66
2023/03/08 06:32:48;;;;;;;16.63;8.17;;;;;;;6.48;51.73;98794.50;5075836;28;20290;-66
2023/03/08 06:35:17;;;;;;;19.73;9.87;;;;;;;6.41;51.85;98794.34;5074080;28;20217;-66
2023/03/08 06:37:44;;;;;;;15.17;8.90;;;;;;;6.48;51.69;98797.16;5075344;28;20664;-66
2023/03/08 06:40:13;;;;;;;18.63;8.60;;;;;;;6.45;51.87;98795.66;5073656;28;20746;-66
2023/03/08 06:42:40;;;;;;;17.87;8.97;;;;;;;6.47;51.88;98790.22;5075543;28;20215;-65
2023/03/08 06:45:10;;;;;;;20.07;9.57;;;;;;;6.41;52.08;98794.34;5075873;28;20254;-66
2023/03/08 06:47:38;;;;;;;19.67;9.67;;;;;;;6.42;52.22;98788.88;5073175;28;20207;-68
2023/03/08 06:50:06;;;;;;;21.37;10.20;;;;;;;6.34;52.42;98783.63;5073775;28;20326;-68
2023/03/08 06:52:36;;;;;;;20.20;10.23;;;;;;;6.38;52.43;98778.84;5074028;28;20970;-66
2023/03/08 06:55:04;;;;;;;17.10;9.37;;;;;;;6.37;52.62;98780.66;5076872;28;20310;-66
2023/03/08 06:57:32;;;;;;;20.33;10.53;;;;;;;6.37;52.41;98772.78;5076947;28;20210;-65
2023/03/08 07:00:00;;;;;;;20.60;9.70;;;;;;;6.34;52.73;98762.56;5076056;28;20203;-67
2023/03/08 07:02:28;;;;;;;23.20;9.97;;;;;;;6.35;52.87;98763.38;5077050;28;20209;-65
2023/03/08 07:04:55;;;;;;;20.50;9.93;;;;;;;6.39;53.09;98776.06;5075974;28;21180;-66
2023/03/08 07:07:23;;;;;;;25.30;10.27;;;;;;;6.38;53.18;98769.16;5076416;28;20230;-66
2023/03/08 07:09:52;;;;;;;19.83;10.27;;;;;;;6.40;52.87;98751.41;5074835;28;20239;-66
2023/03/08 07:12:20;;;;;;;21.17;10.90;;;;;;;6.41;53.16;98765.38;5074597;28;20214;-64
2023/03/08 07:14:48;;;;;;;22.87;10.73;;;;;;;6.42;53.09;98754.66;5073979;28;20211;-65
2023/03/08 07:17:15;;;;;;;21.67;9.70;;;;;;;6.49;52.86;98759.31;5075916;28;20289;-65
2023/03/08 07:19:43;;;;;;;23.27;10.10;;;;;;;6.48;53.31;98755.00;5075056;28;20569;-64
2023/03/08 07:22:11;;;;;;;20.53;9.67;;;;;;;6.50;53.86;98745.97;5075651;28;20225;-66
2023/03/08 07:24:39;;;;;;;22.80;9.33;;;;;;;6.49;54.84;98741.69;5074997;28;20234;-67
2023/03/08 07:27:08;;;;;;;19.57;9.07;;;;;;;6.41;55.77;98733.78;5077330;28;20253;-65
2023/03/08 07:29:36;;;;;;;16.27;9.20;;;;;;;6.38;57.18;98737.56;5074891;28;20217;-65
2023/03/08 07:32:04;;;;;;;18.50;8.77;;;;;;;6.31;58.13;98720.78;5073460;28;20207;-66
2023/03/08 07:34:32;;;;;;;15.43;8.53;;;;;;;6.30;59.59;98719.13;5073101;28;20213;-65
2023/03/08 07:37:00;;;;;;;14.70;8.23;;;;;;;6.15;61.28;98726.03;5077291;28;20227;-66
2023/03/08 07:39:27;;;;;;;22.50;8.60;;;;;;;6.05;62.44;98735.88;5075740;28;20210;-66
2023/03/08 07:41:55;;;;;;;18.80;9.07;;;;;;;5.91;64.05;98718.88;5075271;28;20214;-66
2023/03/08 07:44:24;;;;;;;14.47;7.40;;;;;;;5.85;65.38;98709.00;5076119;28;20607;-66
2023/03/08 07:46:52;;;;;;;22.27;8.27;;;;;;;5.91;65.91;98710.19;5073792;28;20230;-66
2023/03/08 07:49:19;;;;;;;16.83;8.20;;;;;;;5.86;66.61;98707.19;5075340;28;20210;-65
2023/03/08 07:51:50;;;;;;;18.90;8.17;;;;;;;5.82;67.76;98703.22;5074475;28;20227;-66
2023/03/08 07:54:17;;;;;;;17.23;8.50;;;;;;;5.73;68.83;98706.81;5075631;28;20219;-66
2023/03/08 07:56:48;;;;;;;14.90;8.23;;;;;;;5.68;69.41;98700.25;5073654;28;20660;-65
2023/03/08 07:59:15;;;;;;;18.17;8.47;;;;;;;5.60;70.13;98694.97;5073877;28;20203;-64
2023/03/08 08:01:44;;;;;;;16.20;8.33;;;;;;;5.61;70.42;98696.59;5073530;28;20207;-66
2023/03/08 08:04:13;;;;;;;17.83;8.90;;;;;;;5.54;70.89;98689.53;5074635;28;20214;-66
2023/03/08 08:06:41;;;;;;;19.97;9.17;;;;;;;5.48;71.69;98690.97;5074566;28;20831;-66
2023/03/08 08:09:12;;;;;;;23.83;9.47;;;;;;;5.42;72.03;98672.38;5071966;28;20309;-66
2023/03/08 08:11:39;;;;;;;16.90;8.33;;;;;;;5.24;72.65;98652.28;5075825;28;20203;-66
2023/03/08 08:14:08;;;;;;;20.23;9.20;;;;;;;5.19;73.47;98666.88;5074744;28;20214;-65
2023/03/08 08:16:35;;;;;;;18.53;9.23;;;;;;;5.17;73.83;98663.56;5073515;28;20201;-66
2023/03/08 08:19:05;;;;;;;21.33;8.90;;;;;;;5.21;74.36;98659.63;5072289;28;20242;-66
2023/03/08 08:21:32;;;;;;;17.90;8.87;;;;;;;5.29;74.45;98659.66;5072131;28;20211;-64
2023/03/08 08:24:00;;;;;;;19.87;8.87;;;;;;;5.22;74.64;98648.16;5073111;28;21192;-66
2023/03/08 08:26:28;;;;;;;19.93;10.00;;;;;;;5.18;74.97;98645.03;5074465;28;20246;-65
2023/03/08 08:28:56;;;;;;;20.67;9.23;;;;;;;5.08;75.23;98618.06;5077469;28;20202;-66
2023/03/08 08:31:27;;;;;;;21.90;10.47;;;;;;;4.96;76.15;98611.44;5073974;28;20209;-67
2023/03/08 08:33:55;;;;;;;20.27;9.37;;;;;;;4.87;76.98;98618.44;5075659;28;20201;-66
2023/03/08 08:36:25;;;;;;;21.47;9.80;;;;;;;4.95;77.28;98608.94;5073614;28;20336;-65
2023/03/08 08:38:53;;;;;;;21.77;9.60;;;;;;;4.88;77.52;98604.34;5074357;28;20241;-66
2023/03/08 08:41:23;;;;;;;26.50;10.63;;;;;;;4.89;77.85;98597.28;5072389;28;20960;-67
2023/03/08 08:43:51;;;;;;;23.33;10.77;;;;;;;4.89;78.20;98598.13;5074466;28;20655;-66
2023/03/08 08:46:18;;;;;;;20.50;9.77;;;;;;;4.85;78.61;98573.13;5074941;28;20264;-66
2023/03/08 08:48:46;;;;;;;20.30;10.10;;;;;;;4.85;78.63;98565.25;5073571;28;20639;-66
2023/03/08 08:51:14;;;;;;;21.83;10.50;;;;;;;4.97;78.84;98564.97;5072006;28;20233;-65
2023/03/08 08:53:43;;;;;;;20.53;9.93;;;;;;;5.02;78.66;98558.25;5074522;28;20211;-67
2023/03/08 08:56:13;;;;;;;22.50;10.07;;;;;;;5.03;78.86;98559.91;5075522;28;20242;-67
2023/03/08 08:58:53;;;;;;;23.03;10.30;;;;;;;5.06;79.09;98556.97;5076036;28;20203;-66
2023/03/08 09:01:23;;;;;;;21.90;10.77;;;;;;;4.99;79.46;98558.59;5079424;28;20695;-66
2023/03/08 09:03:51;;;;;;;22.53;10.83;;;;;;;4.97;80.29;98544.78;5078875;28;20210;-66
2023/03/08 09:06:21;;;;;;;26.93;11.20;;;;;;;5.09;80.37;98542.69;5076467;28;20244;-66
2023/03/08 09:08:51;;;;;;;22.43;11.03;;;;;;;5.13;80.64;98529.06;5077744;28;20238;-67
2023/03/08 09:11:19;;;;;;;27.33;12.40;;;;;;;5.18;80.30;98525.97;5081180;28;20209;-65
2023/03/08 09:13:47;;;;;;;25.03;12.23;;;;;;;5.17;80.88;98537.47;5077703;28;20612;-67
2023/03/08 09:16:18;;;;;;;27.37;13.57;;;;;;;5.06;81.35;98537.75;5075400;28;20743;-66
2023/03/08 09:18:46;;;;;;;26.93;12.90;;;;;;;5.13;81.21;98523.81;5075549;28;20207;-66
2023/03/08 09:21:14;;;;;;;25.83;13.73;;;;;;;5.15;81.59;98521.84;5078822;28;20225;-64
2023/03/08 09:23:42;;;;;;;33.10;14.63;;;;;;;5.13;81.92;98517.75;5078065;28;20787;-66
2023/03/08 09:26:12;;;;;;;29.57;14.40;;;;;;;4.94;83.11;98503.06;5077244;28;20230;-66
2023/03/08 09:28:39;;;;;;;33.63;14.60;;;;;;;4.92;83.72;98508.47;5075922;28;20237;-67
2023/03/08 09:31:11;;;;;;;26.07;14.23;;;;;;;4.94;82.93;98505.69;5076428;28;20214;-66
2023/03/08 09:33:40;;;;;;;29.67;14.67;;;;;;;4.98;83.22;98514.09;5076330;28;20231;-65
2023/03/08 09:36:08;;;;;;;27.33;13.93;;;;;;;4.91;83.19;98493.72;5077124;28;20250;-66
2023/03/08 09:38:36;;;;;;;23.87;13.20;;;;;;;4.88;83.88;98498.47;5072810;28;20205;-67
2023/03/08 09:41:20;;;;;;;26.70;12.17;;;;;;;4.97;83.26;98491.44;5076225;28;20713;-65
2023/03/08 09:44:03;;;;;;;22.57;12.00;;;;;;;5.03;82.78;98490.78;5078258;28;20233;-66
2023/03/08 09:46:40;;;;;;;28.43;13.30;;;;;;;5.13;82.48;98486.22;5075908;28;20210;-67
2023/03/08 09:49:15;;;;;;;24.90;12.63;;;;;;;5.08;82.36;98489.34;5079542;28;20229;-66
2023/03/08 09:51:48;;;;;;;23.23;12.37;;;;;;;5.00;83.11;98485.88;5075878;28;20209;-66
2023/03/08 09:54:21;;;;;;;21.93;12.13;;;;;;;4.95;83.38;98480.25;5073581;28;20226;-66
2023/03/08 09:56:52;;;;;;;24.97;12.53;;;;;;;4.96;83.55;98469.59;5074192;28;20198;-66
2023/03/08 09:59:25;;;;;;;21.20;11.47;;;;;;;4.95;83.68;98475.00;5076104;28;20213;-65
2023/03/08 10:02:00;;;;;;;22.60;12.43;;;;;;;4.97;84.35;98467.78;5077409;28;20219;-66
2023/03/08 10:04:45;;;;;;;23.57;12.33;;;;;;;5.08;84.26;98467.50;5077466;28;20227;-66
2023/03/08 10:07:22;;;;;;;23.70;11.67;;;;;;;5.19;83.42;98460.09;5077897;28;20325;-66
2023/03/08 10:10:02;;;;;;;19.00;10.83;;;;;;;5.13;83.28;98436.31;5075499;28;20220;-66
2023/03/08 10:12:42;;;;;;;22.43;10.70;;;;;;;4.95;83.81;98446.94;5075041;28;20214;-65
2023/03/08 10:15:15;;;;;;;24.20;9.80;;;;;;;5.00;84.07;98449.09;5075284;28;20219;-67
2023/03/08 10:17:47;;;;;;;19.73;10.23;;;;;;;5.06;83.68;98437.94;5073885;28;20212;-66
2023/03/08 10:20:19;;;;;;;23.40;10.83;;;;;;;5.12;83.87;98440.72;5074624;28;20206;-65
2023/03/08 10:22:56;;;;;;;20.20;10.17;;;;;;;5.07;83.89;98442.22;5078081;28;20206;-66
2023/03/08 10:25:25;;;;;;;19.30;9.83;;;;;;;5.04;84.04;98429.41;5076086;28;20803;-65
2023/03/08 10:27:56;;;;;;;19.93;10.23;;;;;;;5.00;84.90;98418.41;5076438;28;20818;-66
2023/03/08 10:30:26;;;;;;;18.30;9.90;;;;;;;4.99;85.20;98421.19;5074748;28;20213;-65
2023/03/08 10:32:59;;;;;;;21.90;9.73;;;;;;;5.03;85.52;98422.50;5074594;28;20213;-65
2023/03/08 10:35:33;;;;;;;20.53;11.40;;;;;;;5.11;85.99;98425.13;5073632;28;20213;-66
2023/03/08 10:38:01;;;;;;;19.17;10.13;;;;;;;5.13;85.83;98421.34;5078252;28;20209;-66
2023/03/08 10:40:29;;;;;;;19.50;10.43;;;;;;;5.18;85.28;98415.63;5074955;28;20302;-66
2023/03/08 10:43:04;;;;;;;25.53;10.53;;;;;;;5.15;85.33;98408.06;5076175;28;20210;-65
2023/03/08 10:45:32;;;;;;;20.27;10.27;;;;;;;5.12;85.78;98406.56;5073934;28;20313;-66
2023/03/08 10:48:02;;;;;;;23.40;10.70;;;;;;;5.09;86.01;98400.84;5076171;28;20230;-66
2023/03/08 10:50:34;;;;;;;18.57;10.20;;;;;;;5.15;86.05;98394.94;5074614;28;21081;-66
2023/03/08 10:53:09;;;;;;;16.90;10.10;;;;;;;5.17;86.06;98398.22;5074281;28;20199;-66
2023/03/08 10:55:43;;;;;;;19.47;10.07;;;;;;;5.09;86.35;98385.09;5077096;28;20209;-66
2023/03/08 10:58:28;;;;;;;23.27;10.90;;;;;;;5.11;87.06;98383.09;5076714;28;20729;-67
2023/03/08 11:00:57;;;;;;;19.83;10.13;;;;;;;5.22;87.25;98374.88;5075327;28;20206;-66
2023/03/08 11:03:27;;;;;;;22.33;10.73;;;;;;;5.26;87.26;98370.97;5076397;28;20216;-66
2023/03/08 11:05:57;;;;;;;21.13;12.10;;;;;;;5.29;86.78;98366.19;5075890;28;20237;-66
2023/03/08 11:08:28;;;;;;;20.60;10.87;;;;;;;5.28;87.34;98361.91;5076075;28;20676;-66
2023/03/08 11:11:10;;;;;;;22.87;11.13;;;;;;;5.34;87.39;98363.06;5074141;28;20206;-66
2023/03/08 11:13:41;;;;;;;25.70;10.90;;;;;;;5.36;87.65;98369.00;5073226;28;20249;-66
2023/03/08 11:16:27;;;;;;;28.23;12.17;;;;;;;5.40;86.96;98351.88;5075006;28;20222;-66
2023/03/08 11:19:01;;;;;;;21.17;11.13;;;;;;;5.39;87.87;98355.50;5074847;28;20293;-66
2023/03/08 11:21:42;;;;;;;19.17;10.23;;;;;;;5.48;87.70;98359.75;5072191;28;20220;-66
2023/03/08 11:24:21;;;;;;;21.70;10.67;;;;;;;5.53;87.15;98357.47;5075319;28;20222;-66
2023/03/08 11:27:02;;;;;;;21.77;10.93;;;;;;;5.53;87.42;98357.47;5075842;28;20979;-65
2023/03/08 11:29:44;;;;;;;21.33;11.33;;;;;;;5.53;87.88;98352.22;5071703;28;20211;-66
2023/03/08 11:32:30;;;;;;;24.87;11.80;;;;;;;5.60;88.41;98355.78;5075440;28;20224;-66
2023/03/08 11:35:21;;;;;;;22.43;11.67;;;;;;;5.61;88.46;98344.31;5077834;28;20723;-66
2023/03/08 11:37:55;;;;;;;22.07;11.87;;;;;;;5.71;87.96;98343.28;5076310;28;20196;-66
2023/03/08 11:40:27;;;;;;;21.57;11.33;;;;;;;5.72;88.37;98337.84;5074620;28;20231;-66
2023/03/08 11:43:09;;;;;;;23.23;11.60;;;;;;;5.77;88.59;98332.91;5074993;28;20345;-66